Time;durP1;ratioP1;P1;durP2;ratioP2;P2;SDS_P1;SDS_P2;PMS_P1;PMS_P2;Temp;Humidity;BMP_temperature;BMP_pressure;BME280_temperature;BME280_humidity;BME280_pressure;Samples;Min_cycle;Max_cycle;Signal;HPM_P1;HPM_P2
2022/05/15 00:02:11;;;;;;;9.80;9.20;;;12.70;19.30;;;;;;4936589;29;20277;-72
2022/05/15 00:04:37;;;;;;;8.50;7.90;;;12.60;19.60;;;;;;4936188;29;20557;-72
2022/05/15 00:07:04;;;;;;;8.50;8.10;;;12.50;19.80;;;;;;4936254;29;20182;-72
2022/05/15 00:09:29;;;;;;;28.47;8.80;;;12.50;20.10;;;;;;4935788;29;20483;-72
2022/05/15 00:11:55;;;;;;;8.17;7.77;;;12.50;19.50;;;;;;4936269;29;20452;-72
2022/05/15 00:14:21;;;;;;;7.90;7.50;;;12.60;19.70;;;;;;4936217;29;20186;-72
2022/05/15 00:16:46;;;;;;;7.80;7.50;;;12.60;19.70;;;;;;4936044;29;20272;-72
2022/05/15 00:19:12;;;;;;;8.80;8.20;;;12.50;19.80;;;;;;4935540;29;20614;-72
2022/05/15 00:21:38;;;;;;;8.20;7.80;;;12.50;19.80;;;;;;4936023;29;20483;-72
2022/05/15 00:24:05;;;;;;;7.73;7.33;;;12.60;20.10;;;;;;4935858;29;20209;-72
2022/05/15 00:26:32;;;;;;;8.00;7.70;;;12.50;20.10;;;;;;4936142;29;20181;-72
2022/05/15 00:28:58;;;;;;;8.27;7.60;;;12.50;20.10;;;;;;4935475;29;20442;-72
2022/05/15 00:31:24;;;;;;;7.80;7.30;;;12.40;20.00;;;;;;4935612;29;20411;-72
2022/05/15 00:33:50;;;;;;;8.13;7.73;;;12.30;19.90;;;;;;4935734;29;20429;-72
2022/05/15 00:36:16;;;;;;;7.87;7.57;;;12.20;19.90;;;;;;4935833;29;20187;-72
2022/05/15 00:38:43;;;;;;;7.50;7.20;;;12.20;19.90;;;;;;4935281;29;20433;-72
2022/05/15 00:41:10;;;;;;;7.63;7.03;;;12.10;20.40;;;;;;4935527;29;20185;-72
2022/05/15 00:43:44;;;;;;;7.97;7.37;;;12.20;20.10;;;;;;4934928;29;20822;-72
2022/05/15 00:46:26;;;;;;;7.70;7.20;;;12.20;20.50;;;;;;4934353;29;20511;-72
2022/05/15 00:48:52;;;;;;;6.90;6.60;;;12.10;21.10;;;;;;4935466;29;20436;-72
2022/05/15 00:51:37;;;;;;;7.30;7.00;;;12.20;20.70;;;;;;4935520;29;20758;-72
2022/05/15 00:54:19;;;;;;;8.17;7.67;;;12.20;20.40;;;;;;4935345;29;20426;-72
2022/05/15 00:56:54;;;;;;;7.20;6.90;;;12.20;20.40;;;;;;4935429;29;20431;-72
2022/05/15 00:59:23;;;;;;;7.20;6.80;;;12.20;21.00;;;;;;4934970;29;20927;-72
2022/05/15 01:01:48;;;;;;;6.83;6.43;;;12.10;21.20;;;;;;4935118;29;20428;-72
2022/05/15 01:04:15;;;;;;;7.67;7.17;;;12.20;20.90;;;;;;4935061;29;20465;-72
2022/05/15 01:06:43;;;;;;;8.17;7.60;;;12.20;20.80;;;;;;4935150;29;20185;-72
2022/05/15 01:09:09;;;;;;;7.30;6.90;;;12.20;20.50;;;;;;4935020;29;20453;-72
2022/05/15 01:11:37;;;;;;;7.53;7.13;;;12.10;20.60;;;;;;4935116;29;20420;-72
2022/05/15 01:14:05;;;;;;;6.90;6.60;;;12.10;20.90;;;;;;4933776;29;20425;-72
2022/05/15 01:16:32;;;;;;;7.50;6.90;;;12.00;20.80;;;;;;4933752;29;20436;-72
2022/05/15 01:19:00;;;;;;;8.03;7.63;;;12.00;20.80;;;;;;4934466;29;20464;-72
2022/05/15 01:21:35;;;;;;;7.90;7.40;;;12.00;20.90;;;;;;4934830;29;20434;-72
2022/05/15 01:24:03;;;;;;;7.33;6.83;;;11.90;20.90;;;;;;4934894;29;20463;-72
2022/05/15 01:26:30;;;;;;;7.63;7.23;;;11.90;21.10;;;;;;4934850;29;20415;-72
2022/05/15 01:28:57;;;;;;;7.57;7.07;;;11.80;22.20;;;;;;4934561;29;20431;-72
2022/05/15 01:31:24;;;;;;;7.77;7.37;;;11.80;21.70;;;;;;4934870;29;20519;-72
2022/05/15 01:33:51;;;;;;;6.57;6.27;;;11.80;21.70;;;;;;4933424;29;20434;-72
2022/05/15 01:36:22;;;;;;;7.97;7.30;;;11.80;22.00;;;;;;4934653;29;20454;-72
2022/05/15 01:38:48;;;;;;;6.30;6.00;;;11.80;21.60;;;;;;4934329;29;20436;-72
2022/05/15 01:41:14;;;;;;;7.40;6.90;;;11.90;21.40;;;;;;4933456;29;20778;-72
2022/05/15 01:43:43;;;;;;;6.77;6.37;;;11.80;21.40;;;;;;4933314;29;20478;-72
2022/05/15 01:46:09;;;;;;;6.57;6.27;;;11.80;21.70;;;;;;4934706;29;20173;-72
2022/05/15 01:48:34;;;;;;;6.63;6.23;;;11.80;21.20;;;;;;4933083;29;20851;-72
2022/05/15 01:51:00;;;;;;;7.33;6.93;;;11.80;21.50;;;;;;4934793;29;20559;-72
2022/05/15 01:53:26;;;;;;;6.40;6.00;;;11.80;21.50;;;;;;4934785;29;20655;-72
2022/05/15 01:55:52;;;;;;;6.43;6.13;;;11.70;22.40;;;;;;4937515;29;20244;-72
2022/05/15 01:58:18;;;;;;;5.97;5.67;;;11.60;22.60;;;;;;4938381;29;20198;-72
2022/05/15 02:00:44;;;;;;;6.43;5.53;;;11.60;22.60;;;;;;4937195;29;20439;-72
2022/05/15 02:03:10;;;;;;;5.90;5.60;;;11.60;23.40;;;;;;4936843;29;20210;-72
2022/05/15 02:05:35;;;;;;;5.90;5.50;;;11.50;23.40;;;;;;4938323;29;20498;-72
2022/05/15 02:08:01;;;;;;;5.30;4.90;;;11.50;23.60;;;;;;4938112;29;20205;-72
2022/05/15 02:10:27;;;;;;;6.00;4.90;;;11.40;23.60;;;;;;4938318;29;20242;-72
2022/05/15 02:12:52;;;;;;;5.43;5.00;;;11.40;24.10;;;;;;4938329;29;20182;-72
2022/05/15 02:15:18;;;;;;;5.23;4.93;;;11.30;24.10;;;;;;4938275;29;20660;-72
2022/05/15 02:17:43;;;;;;;4.80;4.50;;;11.30;23.90;;;;;;4937606;29;20179;-72
2022/05/15 02:20:11;;;;;;;5.00;4.70;;;11.30;24.00;;;;;;4938215;29;20167;-72
2022/05/15 02:22:38;;;;;;;5.03;4.73;;;11.30;24.00;;;;;;4938293;29;20180;-72
2022/05/15 02:25:09;;;;;;;5.60;5.23;;;11.20;23.80;;;;;;4938075;29;20531;-72
2022/05/15 02:27:35;;;;;;;6.00;5.43;;;11.20;23.90;;;;;;4937677;29;20429;-72
2022/05/15 02:30:03;;;;;;;5.40;5.10;;;11.30;23.50;;;;;;4937952;29;20422;-72
2022/05/15 02:32:28;;;;;;;5.47;5.17;;;11.30;23.50;;;;;;4937665;29;20334;-72
2022/05/15 02:34:54;;;;;;;5.57;5.00;;;11.30;23.50;;;;;;4936569;29;21012;-72
2022/05/15 02:37:19;;;;;;;5.53;4.73;;;11.20;23.40;;;;;;4937585;29;20183;-72
2022/05/15 02:39:45;;;;;;;7.23;5.17;;;11.30;23.50;;;;;;4936717;29;20704;-72
2022/05/15 02:42:10;;;;;;;6.03;5.57;;;11.20;23.40;;;;;;4937792;29;20691;-72
2022/05/15 02:44:36;;;;;;;7.20;6.50;;;11.20;23.40;;;;;;4937623;29;20644;-72
2022/05/15 02:47:03;;;;;;;5.13;4.83;;;11.20;23.40;;;;;;4937567;29;20563;-72
2022/05/15 02:52:12;;;;;;;5.20;4.90;;;11.10;23.40;;;;;;4937581;29;20425;-72
2022/05/15 02:54:38;;;;;;;5.03;4.73;;;11.10;24.20;;;;;;4937543;29;20423;-72
2022/05/15 02:57:06;;;;;;;4.87;4.60;;;11.00;24.00;;;;;;4937418;29;20669;-72
2022/05/15 02:59:32;;;;;;;5.10;4.70;;;11.00;24.40;;;;;;4937062;29;20203;-72
2022/05/15 03:01:57;;;;;;;6.37;4.30;;;10.90;24.60;;;;;;4937237;29;20770;-72
2022/05/15 03:04:23;;;;;;;5.73;5.10;;;11.00;25.00;;;;;;4937380;29;20567;-72
2022/05/15 03:06:48;;;;;;;4.33;4.03;;;11.00;25.20;;;;;;4936889;29;20603;-72
2022/05/15 03:09:14;;;;;;;4.13;3.87;;;11.00;25.10;;;;;;4936931;29;20205;-72
2022/05/15 03:11:39;;;;;;;4.30;4.00;;;11.00;25.10;;;;;;4937262;29;20548;-72
2022/05/15 03:14:05;;;;;;;4.60;4.30;;;10.90;25.40;;;;;;4937122;29;20223;-72
2022/05/15 03:16:31;;;;;;;4.60;4.20;;;10.90;25.60;;;;;;4935812;29;20543;-72
2022/05/15 03:18:56;;;;;;;4.33;4.03;;;10.90;25.70;;;;;;4936832;29;20279;-72
2022/05/15 03:21:28;;;;;;;4.40;4.10;;;10.90;25.50;;;;;;4937316;29;20671;-72
2022/05/15 03:24:07;;;;;;;4.27;3.97;;;10.80;25.70;;;;;;4935635;29;20243;-72
2022/05/15 03:26:35;;;;;;;4.40;4.10;;;10.00;25.20;;;;;;4936879;29;20850;-72
2022/05/15 03:29:01;;;;;;;4.20;3.90;;;10.90;25.10;;;;;;4936654;29;20907;-72
2022/05/15 03:31:27;;;;;;;4.37;4.07;;;10.80;25.90;;;;;;4936898;29;20411;-72
2022/05/15 03:33:53;;;;;;;4.00;3.70;;;10.70;25.80;;;;;;4935560;29;20462;-72
2022/05/15 03:36:18;;;;;;;5.20;4.77;;;10.70;26.20;;;;;;4936809;29;20173;-72
2022/05/15 03:38:46;;;;;;;4.20;3.90;;;10.70;26.00;;;;;;4936410;29;20197;-72
2022/05/15 03:41:13;;;;;;;4.00;3.70;;;10.70;26.60;;;;;;4935357;29;20203;-72
2022/05/15 03:43:39;;;;;;;5.43;4.10;;;10.60;26.90;;;;;;4935326;29;20471;-72
2022/05/15 03:46:07;;;;;;;4.40;3.87;;;10.50;27.10;;;;;;4935402;29;20423;-72
2022/05/15 03:48:33;;;;;;;3.80;3.50;;;10.60;27.10;;;;;;4934871;29;20456;-72
2022/05/15 03:50:59;;;;;;;5.13;4.20;;;10.60;28.00;;;;;;4936560;29;20482;-72
2022/05/15 03:53:26;;;;;;;4.50;4.10;;;10.50;29.00;;;;;;4936469;29;20785;-72
2022/05/15 03:55:55;;;;;;;6.07;4.20;;;10.60;29.10;;;;;;4936354;29;20414;-72
2022/05/15 03:58:21;;;;;;;4.83;3.90;;;10.60;28.80;;;;;;4936349;29;20820;-72
2022/05/15 04:00:47;;;;;;;4.43;3.90;;;10.60;29.70;;;;;;4936324;29;20424;-72
2022/05/15 04:03:12;;;;;;;6.43;4.30;;;10.50;31.00;;;;;;4934924;29;20976;-72
2022/05/15 04:05:38;;;;;;;4.30;3.90;;;10.60;31.40;;;;;;4936270;29;20626;-72
2022/05/15 04:08:04;;;;;;;7.80;4.67;;;10.70;31.10;;;;;;4936173;29;20205;-72
2022/05/15 04:10:30;;;;;;;5.00;4.20;;;10.60;31.50;;;;;;4936403;29;20181;-72
2022/05/15 04:12:55;;;;;;;7.00;3.77;;;10.70;31.60;;;;;;4936607;29;20239;-72
2022/05/15 04:15:21;;;;;;;3.63;3.20;;;10.80;31.70;;;;;;4936452;29;20411;-72
2022/05/15 04:17:52;;;;;;;4.77;4.37;;;10.90;31.00;;;;;;4934912;29;20175;-72
2022/05/15 04:20:21;;;;;;;6.00;4.27;;;11.00;30.90;;;;;;4934775;29;20183;-72
2022/05/15 04:22:46;;;;;;;13.63;4.63;;;11.00;31.10;;;;;;4934678;29;20419;-72
2022/05/15 04:25:12;;;;;;;4.00;3.70;;;11.20;30.30;;;;;;4935820;29;20515;-72
2022/05/15 04:27:39;;;;;;;5.10;4.60;;;11.20;29.90;;;;;;4935603;29;20268;-72
2022/05/15 04:30:06;;;;;;;4.93;4.53;;;11.40;32.00;;;;;;4935921;29;20422;-72
2022/05/15 04:32:31;;;;;;;6.77;4.93;;;11.60;32.40;;;;;;4935599;29;20845;-72
2022/05/15 04:34:57;;;;;;;5.00;4.60;;;11.70;28.90;;;;;;4934462;29;20425;-72
2022/05/15 04:37:23;;;;;;;5.03;4.53;;;11.80;28.70;;;;;;4935427;29;20181;-72
2022/05/15 04:39:48;;;;;;;4.90;4.50;;;11.80;29.20;;;;;;4935778;29;20233;-72
2022/05/15 04:42:14;;;;;;;4.90;4.50;;;11.90;28.70;;;;;;4935686;29;20253;-72
2022/05/15 04:44:40;;;;;;;5.10;4.60;;;12.00;28.10;;;;;;4935542;29;20213;-72
2022/05/15 04:47:06;;;;;;;6.13;5.63;;;12.00;28.10;;;;;;4934153;29;20528;-72
2022/05/15 04:49:31;;;;;;;5.70;5.30;;;12.10;28.20;;;;;;4935211;29;20296;-72
2022/05/15 04:51:57;;;;;;;5.17;4.63;;;12.10;28.20;;;;;;4934045;29;20601;-72
2022/05/15 04:54:22;;;;;;;5.87;5.30;;;12.20;28.20;;;;;;4935421;29;20189;-72
2022/05/15 04:56:48;;;;;;;6.00;5.40;;;12.30;27.70;;;;;;4935347;29;20181;-72
2022/05/15 04:59:14;;;;;;;6.97;5.40;;;;;;;;;;4935031;29;20292;-72
2022/05/15 05:01:39;;;;;;;5.03;4.63;;;12.60;26.30;;;;;;4935217;29;20182;-72
2022/05/15 05:04:05;;;;;;;5.27;4.80;;;12.60;27.60;;;;;;4935107;29;20454;-72
2022/05/15 05:06:31;;;;;;;5.80;5.20;;;13.30;43.40;;;;;;4935115;29;20214;-72
2022/05/15 05:08:57;;;;;;;7.30;6.90;;;14.70;27.40;;;;;;4933521;29;20555;-72
2022/05/15 05:11:23;;;;;;;9.83;9.00;;;16.20;29.90;;;;;;4935078;29;20641;-73
2022/05/15 05:13:49;;;;;;;10.60;9.90;;;17.70;19.90;;;;;;4935081;29;20238;-73
2022/05/15 05:16:15;;;;;;;12.63;11.93;;;19.10;17.80;;;;;;4935052;29;20984;-73
2022/05/15 05:18:41;;;;;;;12.87;12.07;;;20.50;16.90;;;;;;4959722;23;20611;-74
2022/05/15 05:21:07;;;;;;;14.00;13.30;;;21.50;14.20;;;;;;4954194;29;20414;-74
2022/05/15 05:23:32;;;;;;;14.07;13.23;;;22.70;12.10;;;;;;4954273;29;20217;-74
2022/05/15 05:25:58;;;;;;;14.17;13.47;;;23.70;10.10;;;;;;4954159;29;20280;-74
2022/05/15 05:28:25;;;;;;;14.40;13.80;;;24.70;8.60;;;;;;4953690;28;20185;-74
2022/05/15 05:30:51;;;;;;;15.90;15.00;;;25.40;7.00;;;;;;4954177;29;20174;-74
2022/05/15 05:33:17;;;;;;;16.97;15.73;;;26.10;5.10;;;;;;4937551;29;20784;-74
2022/05/15 05:35:42;;;;;;;15.30;14.70;;;26.30;3.70;;;;;;4954201;29;20406;-74
2022/05/15 05:38:08;;;;;;;16.70;15.90;;;26.40;3.90;;;;;;4953953;29;20424;-74
2022/05/15 05:40:34;;;;;;;16.13;15.43;;;26.90;4.30;;;;;;4954068;28;20269;-74
2022/05/15 05:43:00;;;;;;;16.00;15.30;;;26.90;2.70;;;;;;4954116;29;20170;-74
2022/05/15 05:45:26;;;;;;;15.20;14.60;;;25.80;3.60;;;;;;4936711;29;20429;-74
2022/05/15 05:47:52;;;;;;;14.70;14.10;;;26.70;3.50;;;;;;4954835;29;20553;-74
2022/05/15 05:50:21;;;;;;;16.07;15.17;;;25.70;4.10;;;;;;4953987;28;20284;-74
2022/05/15 05:52:47;;;;;;;16.13;15.07;;;27.00;3.60;;;;;;4953784;29;20761;-74
2022/05/15 05:55:15;;;;;;;15.90;15.07;;;26.90;1.00;;;;;;4953927;29;20442;-74
2022/05/15 05:57:42;;;;;;;15.73;15.03;;;27.60;2.40;;;;;;4953770;29;20190;-74
2022/05/15 06:00:11;;;;;;;15.73;15.10;;;28.50;1.10;;;;;;4953775;28;20433;-74
2022/05/15 06:02:36;;;;;;;16.00;15.30;;;29.40;4.00;;;;;;4953664;29;20445;-74
2022/05/15 06:05:02;;;;;;;16.70;15.90;;;30.10;1.00;;;;;;4953930;29;21005;-74
2022/05/15 06:07:28;;;;;;;16.67;15.87;;;27.40;1.00;;;;;;4936225;29;20201;-74
2022/05/15 06:09:55;;;;;;;15.50;14.33;;;28.20;1.00;;;;;;4953624;28;20491;-74
2022/05/15 06:12:23;;;;;;;15.60;14.90;;;28.50;1.00;;;;;;4953771;29;20422;-74
2022/05/15 06:14:50;;;;;;;15.83;15.23;;;29.20;1.00;;;;;;4953638;29;20472;-74
2022/05/15 06:17:20;;;;;;;15.77;15.07;;;30.20;1.00;;;;;;4953163;29;20517;-74
2022/05/15 06:19:46;;;;;;;15.83;15.13;;;30.60;1.00;;;;;;4953515;28;20463;-74
2022/05/15 06:22:11;;;;;;;15.30;14.70;;;31.00;1.00;;;;;;4953720;29;20425;-74
2022/05/15 06:24:37;;;;;;;15.90;15.10;;;31.50;1.00;;;;;;4953577;29;20214;-74
2022/05/15 06:27:03;;;;;;;16.77;15.97;;;31.50;1.00;;;;;;4936309;29;20679;-74
2022/05/15 06:29:29;;;;;;;15.60;14.90;;;31.00;1.00;;;;;;4953201;28;20738;-74
2022/05/15 06:31:55;;;;;;;16.20;15.40;;;30.40;1.00;;;;;;4953497;29;20549;-74
2022/05/15 06:34:21;;;;;;;16.13;15.40;;;29.30;1.00;;;;;;4953512;29;20421;-74
2022/05/15 06:36:47;;;;;;;14.87;14.27;;;28.00;1.00;;;;;;4953586;29;20260;-75
2022/05/15 06:39:13;;;;;;;15.47;14.77;;;28.10;1.00;;;;;;4953080;28;20436;-74
2022/05/15 06:41:39;;;;;;;14.77;14.13;;;28.00;1.00;;;;;;4938507;29;20440;-75
2022/05/15 06:44:05;;;;;;;15.50;14.80;;;27.30;1.00;;;;;;4939969;29;20461;-74
2022/05/15 06:46:32;;;;;;;16.70;15.90;;;26.60;1.00;;;;;;4956977;29;20178;-74
2022/05/15 06:48:57;;;;;;;16.07;15.37;;;26.60;1.40;;;;;;4956727;28;20441;-74
2022/05/15 06:51:23;;;;;;;17.23;16.03;;;26.30;1.00;;;;;;4939659;29;20476;-74
2022/05/15 06:53:50;;;;;;;16.10;15.30;;;25.90;1.10;;;;;;4956865;29;20248;-74
2022/05/15 06:59:02;;;;;;;16.10;15.30;;;26.70;1.50;;;;;;4956381;28;20457;-74
2022/05/15 07:01:28;;;;;;;15.83;15.00;;;27.40;1.00;;;;;;4956764;29;20425;-75
2022/05/15 07:03:53;;;;;;;16.17;15.20;;;28.20;1.00;;;;;;4939359;29;20508;-73
2022/05/15 07:06:19;;;;;;;16.77;16.07;;;29.10;1.00;;;;;;4956635;29;20453;-72
2022/05/15 07:08:44;;;;;;;15.30;14.70;;;29.70;1.00;;;;;;4956309;28;20205;-74
2022/05/15 07:11:11;;;;;;;15.30;14.60;;;30.30;1.00;;;;;;4958119;29;20174;-73
2022/05/15 07:13:37;;;;;;;16.27;14.93;;;28.50;1.00;;;;;;4958389;29;20266;-74
2022/05/15 07:16:03;;;;;;;16.50;15.80;;;28.40;1.00;;;;;;4958353;29;20457;-75
2022/05/15 07:18:28;;;;;;;16.27;15.57;;;29.70;1.00;;;;;;4958457;28;20451;-74
2022/05/15 07:20:54;;;;;;;15.43;14.63;;;29.70;1.00;;;;;;4959113;29;20793;-74
2022/05/15 07:23:20;;;;;;;14.73;14.13;;;30.10;1.00;;;;;;4960491;29;20718;-74
2022/05/15 07:25:48;;;;;;;16.03;15.33;;;30.00;1.00;;;;;;4960893;29;20181;-74
2022/05/15 07:28:13;;;;;;;16.87;15.87;;;29.30;1.00;;;;;;4959431;28;20449;-75
2022/05/15 07:30:40;;;;;;;16.13;15.43;;;30.50;1.00;;;;;;4958948;29;20458;-74
2022/05/15 07:33:06;;;;;;;16.27;15.40;;;30.30;1.00;;;;;;4941514;29;20178;-74
2022/05/15 07:35:32;;;;;;;16.73;15.80;;;31.00;1.00;;;;;;4958405;29;20931;-75
2022/05/15 07:37:58;;;;;;;15.70;15.00;;;31.40;1.00;;;;;;4957717;29;20432;-74
2022/05/15 07:40:23;;;;;;;14.73;14.13;;;31.50;1.00;;;;;;4958160;28;20438;-74
2022/05/15 07:42:49;;;;;;;15.70;15.03;;;30.90;1.00;;;;;;4940867;29;20201;-74
2022/05/15 07:45:16;;;;;;;16.00;15.30;;;31.20;1.00;;;;;;4958171;29;20205;-74
2022/05/15 07:47:43;;;;;;;15.93;14.97;;;30.20;1.00;;;;;;4957047;29;20648;-74
2022/05/15 07:50:10;;;;;;;16.20;15.20;;;30.30;1.00;;;;;;4956274;28;20437;-74
2022/05/15 07:52:36;;;;;;;15.20;14.60;;;31.00;1.00;;;;;;4954864;28;20504;-75
2022/05/15 07:55:02;;;;;;;15.50;14.70;;;31.60;1.00;;;;;;4955806;29;20413;-74
2022/05/15 07:57:27;;;;;;;15.23;14.63;;;31.90;1.00;;;;;;4938524;29;20969;-75
2022/05/15 07:59:53;;;;;;;16.13;14.87;;;31.90;1.00;;;;;;4956161;28;20293;-75
2022/05/15 08:02:19;;;;;;;15.80;15.10;;;30.90;1.00;;;;;;4956621;29;20178;-74
2022/05/15 08:10:13;;;;;;;17.43;16.57;;;30.40;1.00;;;;;;4959716;28;20575;-74
2022/05/15 08:12:39;;;;;;;16.30;15.60;;;27.90;4.90;;;;;;4961376;29;20445;-74
2022/05/15 08:15:07;;;;;;;17.00;16.00;;;28.90;1.00;;;;;;4960671;29;20182;-74
2022/05/15 08:17:33;;;;;;;16.33;15.63;;;29.20;1.00;;;;;;4961080;29;20186;-74
2022/05/15 08:25:26;;;;;;;16.10;15.40;;;26.70;2.80;;;;;;4958046;29;20816;-74
2022/05/15 08:27:52;;;;;;;16.83;16.03;;;25.80;5.30;;;;;;4957232;29;20434;-74
2022/05/15 08:30:20;;;;;;;17.20;16.13;;;25.10;5.70;;;;;;4957785;28;20213;-73
2022/05/15 08:32:46;;;;;;;16.10;15.40;;;25.50;6.20;;;;;;4940424;29;20186;-74
2022/05/15 08:35:12;;;;;;;15.13;14.53;;;25.10;6.40;;;;;;4957663;29;20525;-73
2022/05/15 08:37:38;;;;;;;15.30;14.60;;;24.80;6.70;;;;;;4957219;29;20410;-74
2022/05/15 08:40:05;;;;;;;15.90;15.10;;;;;;;;;;4940031;29;20201;-74
2022/05/15 08:42:56;;;;;;;14.60;13.90;;;23.40;8.70;;;;;;4957178;29;20777;-74
2022/05/15 08:45:32;;;;;;;16.03;15.33;;;23.70;10.10;;;;;;4957290;29;20978;-75
2022/05/15 08:48:11;;;;;;;15.33;14.60;;;24.30;8.80;;;;;;4957042;28;20433;-75
2022/05/15 08:50:43;;;;;;;16.07;15.17;;;24.60;8.60;;;;;;4957147;29;20416;-74
2022/05/15 08:53:15;;;;;;;15.93;15.20;;;24.30;8.20;;;;;;4940045;29;20510;-74
2022/05/15 08:55:55;;;;;;;16.37;15.47;;;24.10;7.80;;;;;;4956679;29;20421;-74
2022/05/15 08:58:45;;;;;;;14.90;14.30;;;23.10;9.70;;;;;;4956678;28;20549;-74
2022/05/15 09:01:14;;;;;;;14.90;14.20;;;22.90;9.80;;;;;;4955799;29;20421;-75
2022/05/15 09:03:40;;;;;;;15.63;14.73;;;22.60;10.10;;;;;;4937728;29;20461;-74
2022/05/15 09:06:38;;;;;;;14.47;13.87;;;22.30;10.70;;;;;;4954491;29;20428;-74
2022/05/15 09:09:30;;;;;;;14.60;14.00;;;22.20;10.30;;;;;;4954064;28;20198;-74
2022/05/15 09:12:17;;;;;;;14.53;14.03;;;21.80;10.90;;;;;;4954396;29;20542;-74
2022/05/15 09:15:06;;;;;;;14.57;13.97;;;22.00;11.30;;;;;;4954388;29;20425;-74
2022/05/15 09:17:42;;;;;;;14.00;13.30;;;22.20;11.50;;;;;;4954212;29;20464;-74
2022/05/15 09:20:10;;;;;;;14.27;13.67;;;21.70;10.60;;;;;;4954115;28;20449;-73
2022/05/15 09:22:43;;;;;;;14.47;13.73;;;21.50;10.90;;;;;;4954129;29;20418;-74
2022/05/15 09:25:21;;;;;;;14.27;13.67;;;21.60;11.70;;;;;;4954062;29;20984;-74
2022/05/15 09:28:07;;;;;;;14.13;13.53;;;21.70;12.10;;;;;;4953862;29;20457;-74
2022/05/15 09:30:41;;;;;;;14.30;13.70;;;21.80;12.00;;;;;;4937012;29;20437;-73
2022/05/15 09:33:07;;;;;;;13.73;13.13;;;22.00;11.10;;;;;;4954105;29;20450;-73
2022/05/15 09:35:33;;;;;;;13.63;13.03;;;22.00;11.00;;;;;;4954205;29;20556;-73
2022/05/15 09:43:40;;;;;;;13.30;12.73;;;22.10;11.40;;;;;;4955186;29;20928;-73
2022/05/15 09:46:10;;;;;;;14.47;13.73;;;22.10;11.60;;;;;;4953938;29;20418;-73
2022/05/15 09:48:47;;;;;;;13.60;13.00;;;22.30;11.80;;;;;;4953680;28;20425;-74
2022/05/15 09:51:12;;;;;;;14.23;13.53;;;22.30;11.70;;;;;;4953839;29;20443;-73
2022/05/15 09:53:43;;;;;;;13.77;13.07;;;22.40;11.10;;;;;;4953890;29;20955;-74
2022/05/15 09:56:20;;;;;;;14.30;13.80;;;22.50;11.20;;;;;;4936503;29;20795;-74
2022/05/15 09:58:52;;;;;;;14.13;13.53;;;22.40;11.10;;;;;;4953533;28;20804;-73
2022/05/15 10:01:40;;;;;;;14.03;13.40;;;22.40;11.00;;;;;;4953716;29;20501;-73
2022/05/15 10:04:19;;;;;;;13.33;12.77;;;22.30;11.30;;;;;;4953710;29;20457;-74
2022/05/15 10:06:54;;;;;;;15.70;14.13;;;22.30;11.40;;;;;;4953737;29;20441;-73
2022/05/15 10:09:34;;;;;;;13.70;13.10;;;22.50;11.30;;;;;;4953288;28;20429;-73
2022/05/15 10:12:08;;;;;;;14.13;13.50;;;22.40;11.60;;;;;;4953613;29;20854;-74
2022/05/15 10:14:37;;;;;;;26.07;24.07;;;22.50;11.80;;;;;;4953672;28;20416;-73
2022/05/15 10:17:03;;;;;;;13.93;13.33;;;22.80;11.50;;;;;;4956643;29;20635;-74
2022/05/15 10:19:36;;;;;;;13.93;13.20;;;22.80;11.60;;;;;;4939800;29;20585;-74
2022/05/15 10:22:48;;;;;;;14.23;13.63;;;23.10;11.30;;;;;;4957570;29;20516;-73
2022/05/15 10:25:24;;;;;;;13.10;12.60;;;23.20;9.90;;;;;;4957118;29;20471;-74
2022/05/15 10:28:11;;;;;;;13.90;13.30;;;23.10;10.70;;;;;;4957511;29;20709;-74
2022/05/15 10:30:52;;;;;;;14.70;14.10;;;23.30;10.30;;;;;;4956642;29;20461;-74
2022/05/15 10:33:19;;;;;;;14.77;14.10;;;23.50;10.50;;;;;;4957408;29;20966;-74
2022/05/15 10:36:02;;;;;;;13.73;13.20;;;23.80;9.80;;;;;;4957384;29;20410;-75
2022/05/15 10:38:51;;;;;;;14.20;13.50;;;23.90;9.90;;;;;;4939780;28;20793;-73
2022/05/15 10:41:23;;;;;;;14.27;13.40;;;23.70;8.70;;;;;;4917625;29;20465;-74
2022/05/15 10:44:03;;;;;;;13.80;13.30;;;23.80;9.30;;;;;;4957043;29;20457;-74
2022/05/15 10:46:30;;;;;;;15.00;14.30;;;23.90;8.30;;;;;;4939949;29;20584;-74
2022/05/15 10:48:59;;;;;;;14.90;13.90;;;24.00;7.70;;;;;;4956612;28;20437;-74
2022/05/15 10:51:36;;;;;;;14.10;13.50;;;24.10;8.00;;;;;;4957109;29;20417;-74
2022/05/15 10:57:27;;;;;;;14.23;13.70;;;24.30;7.60;;;;;;4957447;29;20412;-73
2022/05/15 10:59:59;;;;;;;13.07;12.57;;;24.40;7.70;;;;;;4939558;29;20441;-74
2022/05/15 11:02:33;;;;;;;14.10;13.50;;;24.50;7.20;;;;;;4956828;29;20464;-73
2022/05/15 11:05:12;;;;;;;14.10;13.50;;;24.40;6.60;;;;;;4956503;29;20457;-73
2022/05/15 11:08:05;;;;;;;14.97;14.33;;;24.30;6.80;;;;;;4956665;28;20417;-73
2022/05/15 11:10:45;;;;;;;14.70;14.00;;;24.40;5.60;;;;;;4956513;28;20457;-73
2022/05/15 11:13:25;;;;;;;15.47;14.77;;;24.40;6.00;;;;;;4939252;29;20468;-73
2022/05/15 11:15:59;;;;;;;15.00;14.40;;;24.70;4.70;;;;;;4939063;29;20525;-73
2022/05/15 11:18:38;;;;;;;15.10;14.40;;;24.80;4.00;;;;;;4956310;28;20946;-73
2022/05/15 11:21:12;;;;;;;15.17;14.47;;;24.80;4.00;;;;;;4957023;29;20523;-73
2022/05/15 11:23:56;;;;;;;15.03;14.43;;;25.00;4.40;;;;;;4956668;29;20978;-74
2022/05/15 11:26:34;;;;;;;14.73;14.13;;;25.10;3.40;;;;;;4956030;28;20417;-76
2022/05/15 11:29:06;;;;;;;15.50;14.80;;;25.00;3.50;;;;;;4955992;28;20437;-75
2022/05/15 11:31:37;;;;;;;14.03;13.53;;;25.00;3.30;;;;;;4956078;29;20405;-75
2022/05/15 11:34:06;;;;;;;15.63;15.00;;;24.90;3.90;;;;;;4956591;29;20441;-75
2022/05/15 11:36:43;;;;;;;14.50;13.90;;;25.10;2.90;;;;;;4956117;29;20426;-75
2022/05/15 11:39:15;;;;;;;14.50;13.90;;;25.30;3.30;;;;;;4955671;28;20434;-74
2022/05/15 11:41:43;;;;;;;15.03;14.40;;;25.20;3.10;;;;;;4956080;29;20455;-75
2022/05/15 11:44:18;;;;;;;16.00;15.20;;;25.20;3.20;;;;;;4955902;29;20481;-75
2022/05/15 11:46:46;;;;;;;16.10;15.40;;;25.40;3.40;;;;;;4955936;29;20484;-75
2022/05/15 11:49:21;;;;;;;15.17;14.57;;;25.70;2.00;;;;;;4955609;28;20484;-75
2022/05/15 11:52:12;;;;;;;15.83;15.20;;;25.90;1.30;;;;;;4955974;29;20934;-75
2022/05/15 11:54:40;;;;;;;14.80;14.30;;;25.90;1.00;;;;;;4944716;28;20935;-75
2022/05/15 11:57:31;;;;;;;15.87;15.23;;;25.80;1.70;;;;;;4955826;29;20457;-75
2022/05/15 11:59:59;;;;;;;14.93;14.33;;;25.80;1.00;;;;;;4955635;28;20492;-75
2022/05/15 12:02:31;;;;;;;15.43;14.83;;;25.70;1.50;;;;;;4955650;29;20426;-75
2022/05/15 12:05:04;;;;;;;15.10;14.50;;;25.50;1.00;;;;;;4938568;29;20467;-75
2022/05/15 12:07:50;;;;;;;16.10;15.00;;;25.50;1.60;;;;;;4955618;29;20402;-75
2022/05/15 12:10:41;;;;;;;14.87;14.37;;;25.60;1.70;;;;;;4938229;29;20429;-74
2022/05/15 12:13:11;;;;;;;14.90;14.40;;;25.50;1.30;;;;;;4941566;28;20418;-75
2022/05/15 12:15:46;;;;;;;14.40;13.90;;;25.60;2.00;;;;;;4955343;29;20420;-75
2022/05/15 12:18:32;;;;;;;16.00;14.67;;;25.60;1.60;;;;;;4954942;28;20528;-75
2022/05/15 12:20:59;;;;;;;14.50;14.00;;;25.70;2.10;;;;;;4955376;29;20935;-75
2022/05/15 12:23:35;;;;;;;14.80;14.30;;;25.90;1.10;;;;;;4955129;29;20405;-74
2022/05/15 12:26:20;;;;;;;15.40;14.60;;;25.90;1.00;;;;;;4955233;29;20862;-75
2022/05/15 12:29:00;;;;;;;15.83;14.90;;;26.00;1.00;;;;;;4954969;28;20433;-76
2022/05/15 12:31:58;;;;;;;15.40;14.80;;;26.10;1.00;;;;;;4954993;29;20417;-75
2022/05/15 12:34:31;;;;;;;15.20;14.30;;;26.30;1.00;;;;;;4951163;29;20437;-75
2022/05/15 12:37:04;;;;;;;15.30;14.70;;;26.20;1.00;;;;;;4937733;29;20508;-74
2022/05/15 12:39:33;;;;;;;14.50;13.90;;;26.10;1.00;;;;;;4953922;28;20496;-77
2022/05/15 12:42:09;;;;;;;15.07;14.37;;;26.10;1.00;;;;;;4954868;29;20829;-76
2022/05/15 12:44:37;;;;;;;14.80;14.30;;;26.20;1.00;;;;;;4954820;29;20461;-75
2022/05/15 12:47:06;;;;;;;15.30;14.40;;;26.10;1.00;;;;;;4954611;29;20426;-75
2022/05/15 12:49:41;;;;;;;15.80;15.10;;;26.00;1.00;;;;;;4937304;29;20440;-75
2022/05/15 12:52:16;;;;;;;14.90;14.30;;;26.00;1.00;;;;;;4954756;29;20421;-76
2022/05/15 12:54:45;;;;;;;14.63;13.93;;;26.10;1.00;;;;;;4954540;29;20417;-76
2022/05/15 12:57:15;;;;;;;15.50;14.83;;;25.90;1.00;;;;;;4954830;29;20417;-77
2022/05/15 12:59:44;;;;;;;15.10;14.30;;;26.00;1.00;;;;;;4954553;28;20440;-76
2022/05/15 13:02:35;;;;;;;15.17;14.37;;;26.10;1.00;;;;;;4937268;29;20448;-75
2022/05/15 13:05:04;;;;;;;14.20;13.70;;;26.00;1.00;;;;;;4936755;29;20544;-76
2022/05/15 13:07:35;;;;;;;14.73;14.10;;;26.00;1.00;;;;;;4953960;29;20433;-76
2022/05/15 13:10:08;;;;;;;14.60;14.07;;;25.90;1.00;;;;;;4954408;28;20435;-76
2022/05/15 13:12:36;;;;;;;14.70;14.10;;;25.90;1.00;;;;;;4954371;29;20927;-75
2022/05/15 13:15:03;;;;;;;14.57;14.00;;;26.10;1.00;;;;;;4954383;29;20472;-74
2022/05/15 13:17:36;;;;;;;14.83;14.13;;;26.30;1.00;;;;;;4954114;29;20831;-74
2022/05/15 13:20:14;;;;;;;14.63;14.10;;;26.20;1.00;;;;;;4954180;28;20536;-75